ARA236 LOWI-DTTA
Flight info
| Callsign | ARA236 |
|---|---|
| Flight time | 1h 40m |
| Altitude | 37000 |
| Route | BRENO DCT ALBET DCT KREVA DCT LUTOR DCT ELB DCT DEDOM DCT QUENN DCT NOLSI |
| Aircraft | B737/M-SDE2E3FGHIRWXY/LB1 |
Departure
| Time | 2026-04-30 12:32 |
|---|---|
| Airport | Innsbruck Airport (LOWI) |
Arrival
| Time | 2026-04-30 14:12 |
|---|---|
| Airport | Tunis Carthage International Airport (DTTA) |
| Time | Latitude | Longitude | Altitude | Speed | Heading |
|---|---|---|---|---|---|
| 2026-04-30 12:09 | 47.25836 | 11.35168 | 1913 ft | 0 kts | 169° |
| 2026-04-30 12:28 | 47.25834 | 11.35165 | 1913 ft | 1 kts | 202° |
| 2026-04-30 12:28 | 47.25834 | 11.35151 | 1913 ft | 4 kts | 272° |
| 2026-04-30 12:29 | 47.25845 | 11.35043 | 1913 ft | 17 kts | 278° |
| 2026-04-30 12:29 | 47.25849 | 11.34810 | 1901 ft | 29 kts | 262° |
| 2026-04-30 12:29 | 47.25820 | 11.34513 | 1900 ft | 29 kts | 261° |
| 2026-04-30 12:29 | 47.25790 | 11.34234 | 1906 ft | 27 kts | 261° |
| 2026-04-30 12:30 | 47.25776 | 11.33972 | 1913 ft | 25 kts | 287° |
| 2026-04-30 12:30 | 47.25856 | 11.33818 | 1912 ft | 10 kts | 300° |
| 2026-04-30 12:30 | 47.25894 | 11.33721 | 1904 ft | 14 kts | 300° |
| 2026-04-30 12:30 | 47.25926 | 11.33552 | 1912 ft | 21 kts | 266° |
| 2026-04-30 12:31 | 47.25905 | 11.33303 | 1906 ft | 28 kts | 259° |
| 2026-04-30 12:31 | 47.25840 | 11.33163 | 1908 ft | 15 kts | 252° |
| 2026-04-30 12:31 | 47.25859 | 11.33067 | 1909 ft | 11 kts | 1° |
| 2026-04-30 12:31 | 47.25907 | 11.33322 | 1909 ft | 61 kts | 80° |
| 2026-04-30 12:32 | 47.26019 | 11.34339 | 1913 ft | 138 kts | 80° |
| 2026-04-30 12:32 | 47.26173 | 11.35929 | 2441 ft | 159 kts | 87° |
| 2026-04-30 12:32 | 47.26373 | 11.37418 | 3518 ft | 155 kts | 69° |
| 2026-04-30 12:32 | 47.26735 | 11.38955 | 4441 ft | 159 kts | 76° |
| 2026-04-30 12:33 | 47.26922 | 11.40707 | 5126 ft | 183 kts | 84° |
| 2026-04-30 12:33 | 47.27029 | 11.42592 | 6203 ft | 189 kts | 82° |
| 2026-04-30 12:33 | 47.27213 | 11.44563 | 6890 ft | 206 kts | 83° |
| 2026-04-30 12:33 | 47.27551 | 11.46698 | 7460 ft | 221 kts | 66° |
| 2026-04-30 12:34 | 47.28178 | 11.48758 | 8454 ft | 219 kts | 65° |
| 2026-04-30 12:34 | 47.28799 | 11.50837 | 9371 ft | 224 kts | 66° |
| 2026-04-30 12:34 | 47.29415 | 11.52951 | 10331 ft | 226 kts | 66° |
| 2026-04-30 12:34 | 47.30031 | 11.55099 | 11136 ft | 228 kts | 66° |
| 2026-04-30 12:35 | 47.30645 | 11.57261 | 11955 ft | 231 kts | 66° |
| 2026-04-30 12:35 | 47.31273 | 11.59472 | 12724 ft | 235 kts | 65° |
| 2026-04-30 12:35 | 47.31738 | 11.61788 | 13540 ft | 241 kts | 86° |
| 2026-04-30 12:35 | 47.31427 | 11.64239 | 14292 ft | 250 kts | 113° |
| 2026-04-30 12:36 | 47.30361 | 11.66285 | 14781 ft | 258 kts | 140° |
| 2026-04-30 12:36 | 47.28703 | 11.67352 | 15005 ft | 268 kts | 169° |
| 2026-04-30 12:36 | 47.26838 | 11.67127 | 14994 ft | 271 kts | 201° |
| 2026-04-30 12:36 | 47.25296 | 11.65624 | 14950 ft | 271 kts | 233° |
| 2026-04-30 12:37 | 47.24675 | 11.64030 | 15000 ft | 265 kts | 255° |
| 2026-04-30 12:37 | 47.24329 | 11.60501 | 15002 ft | 259 kts | 268° |
| 2026-04-30 12:37 | 47.24178 | 11.57879 | 14986 ft | 262 kts | 268° |
| 2026-04-30 12:37 | 47.24015 | 11.55193 | 14969 ft | 263 kts | 268° |
| 2026-04-30 12:38 | 47.23844 | 11.52511 | 14975 ft | 264 kts | 268° |
| 2026-04-30 12:38 | 47.23663 | 11.49804 | 14968 ft | 265 kts | 267° |
| 2026-04-30 12:38 | 47.23542 | 11.48013 | 14966 ft | 265 kts | 267° |
| 2026-04-30 12:38 | 47.23357 | 11.45318 | 14974 ft | 265 kts | 267° |
| 2026-04-30 12:39 | 47.22870 | 11.42673 | 15290 ft | 275 kts | 241° |
| 2026-04-30 12:39 | 47.21566 | 11.40605 | 15947 ft | 284 kts | 211° |
| 2026-04-30 12:39 | 47.19643 | 11.39660 | 16235 ft | 306 kts | 185° |
| 2026-04-30 12:39 | 47.17438 | 11.39400 | 16445 ft | 330 kts | 181° |
| 2026-04-30 12:40 | 47.15050 | 11.39240 | 16626 ft | 356 kts | 181° |
| 2026-04-30 12:40 | 47.12488 | 11.39067 | 16812 ft | 380 kts | 181° |
| 2026-04-30 12:40 | 47.09766 | 11.38851 | 16968 ft | 403 kts | 182° |
| 2026-04-30 12:40 | 47.06902 | 11.38593 | 17184 ft | 420 kts | 182° |
| 2026-04-30 12:41 | 47.03945 | 11.38300 | 17717 ft | 429 kts | 182° |
| 2026-04-30 12:41 | 47.00956 | 11.37995 | 18409 ft | 433 kts | 182° |
| 2026-04-30 12:41 | 46.97968 | 11.37702 | 18951 ft | 438 kts | 181° |
| 2026-04-30 12:41 | 46.94908 | 11.37676 | 19508 ft | 441 kts | 175° |
| 2026-04-30 12:42 | 46.91836 | 11.37915 | 20128 ft | 443 kts | 173° |
| 2026-04-30 12:42 | 46.88747 | 11.38258 | 20703 ft | 447 kts | 172° |
| 2026-04-30 12:42 | 46.85627 | 11.38624 | 21241 ft | 452 kts | 172° |
| 2026-04-30 12:42 | 46.82478 | 11.38976 | 21808 ft | 456 kts | 172° |
| 2026-04-30 12:43 | 46.79306 | 11.39303 | 22407 ft | 458 kts | 173° |
| 2026-04-30 12:43 | 46.76113 | 11.39608 | 22932 ft | 462 kts | 173° |
| 2026-04-30 12:43 | 46.72873 | 11.39902 | 23365 ft | 468 kts | 173° |
| 2026-04-30 12:43 | 46.69608 | 11.40188 | 23867 ft | 471 kts | 173° |
| 2026-04-30 12:44 | 46.66329 | 11.40468 | 24356 ft | 472 kts | 173° |
| 2026-04-30 12:44 | 46.63048 | 11.40746 | 24831 ft | 472 kts | 173° |
| 2026-04-30 12:44 | 46.59759 | 11.41026 | 25256 ft | 475 kts | 173° |
| 2026-04-30 12:44 | 46.56435 | 11.41310 | 25542 ft | 480 kts | 173° |
| 2026-04-30 12:45 | 46.53088 | 11.41599 | 25915 ft | 483 kts | 173° |
| 2026-04-30 12:45 | 46.49728 | 11.41887 | 26356 ft | 484 kts | 173° |
| 2026-04-30 12:45 | 46.46415 | 11.42170 | 26808 ft | 485 kts | 173° |
| 2026-04-30 12:45 | 46.43021 | 11.42461 | 27069 ft | 490 kts | 173° |
| 2026-04-30 12:46 | 46.39626 | 11.42752 | 27392 ft | 493 kts | 174° |
| 2026-04-30 12:46 | 46.36195 | 11.43045 | 27806 ft | 494 kts | 174° |
| 2026-04-30 12:46 | 46.32761 | 11.43338 | 28162 ft | 496 kts | 174° |
| 2026-04-30 12:46 | 46.29309 | 11.43631 | 28428 ft | 499 kts | 174° |
| 2026-04-30 12:47 | 46.25835 | 11.43927 | 28794 ft | 500 kts | 174° |
| 2026-04-30 12:47 | 46.22364 | 11.44222 | 29357 ft | 498 kts | 174° |
| 2026-04-30 12:47 | 46.18920 | 11.44514 | 29921 ft | 495 kts | 175° |
| 2026-04-30 12:47 | 46.15484 | 11.44805 | 30411 ft | 494 kts | 175° |
| 2026-04-30 12:48 | 46.12052 | 11.45096 | 30775 ft | 494 kts | 175° |
| 2026-04-30 12:48 | 46.08620 | 11.45387 | 31100 ft | 495 kts | 175° |
| 2026-04-30 12:48 | 46.05178 | 11.45678 | 31414 ft | 495 kts | 175° |
| 2026-04-30 12:48 | 46.01735 | 11.45969 | 31788 ft | 495 kts | 176° |
| 2026-04-30 12:49 | 45.98299 | 11.46259 | 32182 ft | 494 kts | 176° |
| 2026-04-30 12:49 | 45.94868 | 11.46548 | 32522 ft | 494 kts | 176° |
| 2026-04-30 12:49 | 45.91435 | 11.46837 | 32839 ft | 494 kts | 176° |
| 2026-04-30 12:49 | 45.88003 | 11.47125 | 33179 ft | 494 kts | 176° |
| 2026-04-30 12:50 | 45.84608 | 11.47410 | 33486 ft | 494 kts | 176° |
| 2026-04-30 12:50 | 45.81131 | 11.47702 | 33811 ft | 494 kts | 176° |
| 2026-04-30 12:50 | 45.77694 | 11.47989 | 34136 ft | 494 kts | 176° |
| 2026-04-30 12:50 | 45.74310 | 11.48272 | 34424 ft | 494 kts | 176° |
| 2026-04-30 12:51 | 45.70834 | 11.48563 | 34691 ft | 493 kts | 176° |
| 2026-04-30 12:51 | 45.67411 | 11.48848 | 34948 ft | 493 kts | 177° |
| 2026-04-30 12:51 | 45.64030 | 11.49130 | 35197 ft | 493 kts | 177° |
| 2026-04-30 12:51 | 45.60609 | 11.49415 | 35448 ft | 493 kts | 177° |
| 2026-04-30 12:52 | 45.57183 | 11.49700 | 35699 ft | 492 kts | 177° |
| 2026-04-30 12:52 | 45.53765 | 11.49983 | 35940 ft | 492 kts | 178° |
| 2026-04-30 12:52 | 45.50347 | 11.50267 | 36169 ft | 492 kts | 178° |
| 2026-04-30 12:52 | 45.46926 | 11.50550 | 36404 ft | 492 kts | 178° |
| 2026-04-30 12:53 | 45.43509 | 11.50567 | 36623 ft | 490 kts | 186° |
| 2026-04-30 12:53 | 45.40139 | 11.49935 | 36848 ft | 488 kts | 195° |
| 2026-04-30 12:53 | 45.36877 | 11.48650 | 37082 ft | 485 kts | 199° |
| 2026-04-30 12:53 | 45.33654 | 11.47238 | 37279 ft | 486 kts | 200° |
| 2026-04-30 12:54 | 45.27167 | 11.44368 | 37303 ft | 488 kts | 200° |
| 2026-04-30 12:54 | 45.20684 | 11.41586 | 37293 ft | 485 kts | 199° |
| 2026-04-30 12:55 | 45.14229 | 11.38870 | 37294 ft | 483 kts | 199° |
| 2026-04-30 12:55 | 45.07798 | 11.36176 | 37292 ft | 481 kts | 199° |
| 2026-04-30 12:56 | 45.01419 | 11.33507 | 37296 ft | 480 kts | 199° |
| 2026-04-30 12:56 | 44.95020 | 11.30832 | 37293 ft | 480 kts | 199° |
| 2026-04-30 12:57 | 44.88622 | 11.28164 | 37287 ft | 479 kts | 199° |
| 2026-04-30 12:57 | 44.82225 | 11.25515 | 37287 ft | 479 kts | 197° |
| 2026-04-30 12:58 | 44.78924 | 11.24722 | 37282 ft | 484 kts | 186° |
| 2026-04-30 12:58 | 44.75556 | 11.24754 | 37294 ft | 486 kts | 176° |
| 2026-04-30 12:58 | 44.72217 | 11.25569 | 37280 ft | 489 kts | 165° |
| 2026-04-30 12:58 | 44.68966 | 11.27003 | 37302 ft | 489 kts | 163° |
| 2026-04-30 12:59 | 44.62500 | 11.30051 | 37288 ft | 490 kts | 163° |
| 2026-04-30 12:59 | 44.56017 | 11.32948 | 37290 ft | 489 kts | 165° |
| 2026-04-30 13:00 | 44.49395 | 11.34717 | 37300 ft | 481 kts | 184° |
| 2026-04-30 13:00 | 44.46073 | 11.34292 | 37295 ft | 476 kts | 195° |
| 2026-04-30 13:00 | 44.42919 | 11.33012 | 37288 ft | 470 kts | 206° |
| 2026-04-30 13:01 | 44.36875 | 11.29527 | 37297 ft | 470 kts | 207° |
| 2026-04-30 13:01 | 44.30833 | 11.25998 | 37278 ft | 472 kts | 207° |
| 2026-04-30 13:02 | 44.24741 | 11.22520 | 37263 ft | 473 kts | 206° |
| 2026-04-30 13:02 | 44.18638 | 11.19090 | 37249 ft | 473 kts | 207° |
| 2026-04-30 13:03 | 44.12576 | 11.15701 | 37243 ft | 472 kts | 207° |
| 2026-04-30 13:03 | 44.06476 | 11.12296 | 37227 ft | 471 kts | 207° |
| 2026-04-30 13:04 | 44.00391 | 11.08905 | 37230 ft | 470 kts | 207° |
| 2026-04-30 13:04 | 43.94317 | 11.05525 | 37204 ft | 470 kts | 207° |
| 2026-04-30 13:05 | 43.88248 | 11.02156 | 37211 ft | 469 kts | 207° |
| 2026-04-30 13:06 | 43.79162 | 10.97127 | 37219 ft | 467 kts | 207° |
| 2026-04-30 13:06 | 43.73163 | 10.93816 | 37208 ft | 467 kts | 207° |
| 2026-04-30 13:07 | 43.67130 | 10.90492 | 37196 ft | 466 kts | 207° |
| 2026-04-30 13:07 | 43.61106 | 10.87181 | 37202 ft | 466 kts | 207° |
| 2026-04-30 13:08 | 43.55094 | 10.83883 | 37186 ft | 465 kts | 207° |
| 2026-04-30 13:08 | 43.49068 | 10.80584 | 37180 ft | 465 kts | 207° |
| 2026-04-30 13:09 | 43.43050 | 10.77298 | 37176 ft | 465 kts | 207° |
| 2026-04-30 13:09 | 43.37025 | 10.74015 | 37167 ft | 465 kts | 207° |
| 2026-04-30 13:10 | 43.31014 | 10.70746 | 37173 ft | 465 kts | 207° |
| 2026-04-30 13:10 | 43.24996 | 10.67481 | 37169 ft | 464 kts | 207° |
| 2026-04-30 13:11 | 43.19034 | 10.64253 | 37151 ft | 464 kts | 207° |
| 2026-04-30 13:11 | 43.13033 | 10.61010 | 37157 ft | 463 kts | 208° |
| 2026-04-30 13:12 | 43.07040 | 10.57778 | 37158 ft | 462 kts | 208° |
| 2026-04-30 13:12 | 43.01056 | 10.54559 | 37141 ft | 462 kts | 208° |
| 2026-04-30 13:13 | 42.92102 | 10.49753 | 37154 ft | 460 kts | 208° |
| 2026-04-30 13:14 | 42.83174 | 10.44974 | 37149 ft | 459 kts | 208° |
| 2026-04-30 13:14 | 42.74226 | 10.40479 | 37143 ft | 464 kts | 199° |
| 2026-04-30 13:15 | 42.64396 | 10.39932 | 37149 ft | 478 kts | 182° |
| 2026-04-30 13:16 | 42.57749 | 10.40467 | 37148 ft | 478 kts | 183° |
| 2026-04-30 13:16 | 42.51116 | 10.40936 | 37144 ft | 477 kts | 183° |
| 2026-04-30 13:17 | 42.41170 | 10.41541 | 37151 ft | 476 kts | 184° |
| 2026-04-30 13:18 | 42.31235 | 10.42131 | 37148 ft | 476 kts | 184° |
| 2026-04-30 13:18 | 42.21306 | 10.42726 | 37150 ft | 476 kts | 184° |
| 2026-04-30 13:19 | 42.14690 | 10.43122 | 37148 ft | 476 kts | 184° |
| 2026-04-30 13:19 | 42.08112 | 10.43512 | 37146 ft | 476 kts | 184° |
| 2026-04-30 13:20 | 42.01493 | 10.43899 | 37146 ft | 476 kts | 184° |
| 2026-04-30 13:20 | 41.94870 | 10.44284 | 37143 ft | 476 kts | 184° |
| 2026-04-30 13:21 | 41.88245 | 10.44669 | 37141 ft | 476 kts | 184° |
| 2026-04-30 13:22 | 41.78301 | 10.45246 | 37142 ft | 477 kts | 184° |
| 2026-04-30 13:22 | 41.68344 | 10.45822 | 37141 ft | 477 kts | 184° |
| 2026-04-30 13:23 | 41.58367 | 10.46398 | 37144 ft | 478 kts | 184° |
| 2026-04-30 13:24 | 41.45100 | 10.47161 | 37141 ft | 479 kts | 184° |
| 2026-04-30 13:25 | 41.32907 | 10.47860 | 37141 ft | 479 kts | 184° |
| 2026-04-30 13:26 | 41.16250 | 10.48810 | 37135 ft | 479 kts | 184° |
| 2026-04-30 13:28 | 40.99590 | 10.49755 | 37133 ft | 479 kts | 184° |
| 2026-04-30 13:28 | 40.89586 | 10.50320 | 37135 ft | 480 kts | 185° |
| 2026-04-30 13:29 | 40.76251 | 10.51071 | 37127 ft | 480 kts | 185° |
| 2026-04-30 13:31 | 40.59574 | 10.52006 | 37126 ft | 480 kts | 185° |
| 2026-04-30 13:32 | 40.42934 | 10.52934 | 37122 ft | 480 kts | 185° |
| 2026-04-30 13:33 | 40.29581 | 10.53676 | 37120 ft | 480 kts | 185° |
| 2026-04-30 13:34 | 40.19562 | 10.54231 | 37118 ft | 480 kts | 185° |
| 2026-04-30 13:35 | 40.06422 | 10.53257 | 37111 ft | 471 kts | 193° |
| 2026-04-30 13:36 | 39.93397 | 10.51520 | 37109 ft | 472 kts | 193° |
| 2026-04-30 13:36 | 39.83586 | 10.50298 | 37106 ft | 472 kts | 193° |
| 2026-04-30 13:37 | 39.73766 | 10.49087 | 37105 ft | 472 kts | 193° |
| 2026-04-30 13:38 | 39.63945 | 10.47876 | 37101 ft | 473 kts | 192° |
| 2026-04-30 13:39 | 39.50887 | 10.46271 | 37100 ft | 472 kts | 192° |
| 2026-04-30 13:40 | 39.41061 | 10.45067 | 37095 ft | 472 kts | 192° |
| 2026-04-30 13:40 | 39.34519 | 10.44267 | 37097 ft | 472 kts | 192° |
| 2026-04-30 13:41 | 39.27970 | 10.43468 | 37091 ft | 472 kts | 192° |
| 2026-04-30 13:41 | 39.21437 | 10.42672 | 37092 ft | 471 kts | 192° |
| 2026-04-30 13:42 | 39.14909 | 10.41878 | 37087 ft | 471 kts | 192° |
| 2026-04-30 13:42 | 39.05165 | 10.40696 | 37084 ft | 470 kts | 192° |
| 2026-04-30 13:43 | 38.98651 | 10.39908 | 37082 ft | 470 kts | 192° |
| 2026-04-30 13:43 | 38.92149 | 10.39122 | 37081 ft | 469 kts | 192° |
| 2026-04-30 13:44 | 38.85641 | 10.38338 | 37081 ft | 469 kts | 192° |
| 2026-04-30 13:44 | 38.79145 | 10.37555 | 37075 ft | 468 kts | 192° |
| 2026-04-30 13:45 | 38.69412 | 10.36387 | 37081 ft | 468 kts | 192° |
| 2026-04-30 13:46 | 38.62933 | 10.35610 | 37071 ft | 467 kts | 192° |
| 2026-04-30 13:46 | 38.56506 | 10.34842 | 37069 ft | 467 kts | 192° |
| 2026-04-30 13:47 | 38.50041 | 10.34070 | 37065 ft | 466 kts | 192° |
| 2026-04-30 13:47 | 38.43571 | 10.33299 | 37062 ft | 466 kts | 192° |
| 2026-04-30 13:48 | 38.37113 | 10.32530 | 37064 ft | 466 kts | 192° |
| 2026-04-30 13:48 | 38.30657 | 10.31764 | 37061 ft | 466 kts | 192° |
| 2026-04-30 13:49 | 38.24200 | 10.30998 | 37061 ft | 466 kts | 192° |
| 2026-04-30 13:49 | 38.17749 | 10.30235 | 37059 ft | 465 kts | 192° |
| 2026-04-30 13:50 | 38.11314 | 10.29477 | 37033 ft | 457 kts | 192° |
| 2026-04-30 13:50 | 38.05202 | 10.28767 | 37030 ft | 425 kts | 192° |
| 2026-04-30 13:50 | 38.02309 | 10.28429 | 37031 ft | 411 kts | 192° |
| 2026-04-30 13:51 | 37.99546 | 10.28111 | 37029 ft | 397 kts | 193° |
| 2026-04-30 13:51 | 37.96837 | 10.27814 | 37028 ft | 384 kts | 192° |
| 2026-04-30 13:51 | 37.91611 | 10.27272 | 37059 ft | 377 kts | 192° |
| 2026-04-30 13:52 | 37.86280 | 10.26697 | 36981 ft | 387 kts | 192° |
| 2026-04-30 13:52 | 37.83515 | 10.26372 | 35673 ft | 412 kts | 192° |
| 2026-04-30 13:52 | 37.80625 | 10.25991 | 34551 ft | 422 kts | 192° |
| 2026-04-30 13:53 | 37.77669 | 10.25575 | 33268 ft | 432 kts | 192° |
| 2026-04-30 13:53 | 37.74661 | 10.25137 | 31989 ft | 438 kts | 192° |
| 2026-04-30 13:53 | 37.71611 | 10.24681 | 30767 ft | 443 kts | 192° |
| 2026-04-30 13:53 | 37.68531 | 10.24214 | 29487 ft | 447 kts | 192° |
| 2026-04-30 13:54 | 37.65444 | 10.23726 | 28142 ft | 447 kts | 192° |
| 2026-04-30 13:54 | 37.62358 | 10.23219 | 26863 ft | 447 kts | 192° |
| 2026-04-30 13:54 | 37.59281 | 10.22694 | 25322 ft | 450 kts | 192° |
| 2026-04-30 13:54 | 37.56159 | 10.22132 | 23796 ft | 455 kts | 192° |
| 2026-04-30 13:55 | 37.53021 | 10.21544 | 22077 ft | 456 kts | 192° |
| 2026-04-30 13:55 | 37.49890 | 10.20935 | 20427 ft | 454 kts | 192° |
| 2026-04-30 13:55 | 37.46825 | 10.20318 | 19061 ft | 448 kts | 192° |
| 2026-04-30 13:55 | 37.43788 | 10.19693 | 17714 ft | 438 kts | 192° |
| 2026-04-30 13:56 | 37.40807 | 10.19088 | 16305 ft | 429 kts | 193° |
| 2026-04-30 13:56 | 37.37883 | 10.18508 | 14953 ft | 421 kts | 193° |
| 2026-04-30 13:56 | 37.35009 | 10.17945 | 13644 ft | 415 kts | 193° |
| 2026-04-30 13:56 | 37.32184 | 10.17371 | 12257 ft | 409 kts | 191° |
| 2026-04-30 13:57 | 37.29429 | 10.16790 | 11468 ft | 391 kts | 192° |
| 2026-04-30 13:57 | 37.26880 | 10.16286 | 11247 ft | 360 kts | 193° |
| 2026-04-30 13:57 | 37.24434 | 10.15889 | 10448 ft | 353 kts | 190° |
| 2026-04-30 13:57 | 37.21994 | 10.15565 | 9458 ft | 353 kts | 189° |
| 2026-04-30 13:58 | 37.19624 | 10.15263 | 9216 ft | 331 kts | 189° |
| 2026-04-30 13:58 | 37.15293 | 10.14723 | 8665 ft | 296 kts | 189° |
| 2026-04-30 13:58 | 37.13279 | 10.14463 | 8402 ft | 286 kts | 189° |
| 2026-04-30 13:59 | 37.11315 | 10.14219 | 8164 ft | 282 kts | 189° |
| 2026-04-30 13:59 | 37.09380 | 10.13981 | 7904 ft | 277 kts | 189° |
| 2026-04-30 13:59 | 37.07474 | 10.13743 | 7666 ft | 273 kts | 189° |
| 2026-04-30 13:59 | 37.05600 | 10.13508 | 7420 ft | 269 kts | 189° |
| 2026-04-30 14:00 | 37.03750 | 10.13271 | 7167 ft | 265 kts | 189° |
| 2026-04-30 14:00 | 37.00138 | 10.12797 | 6690 ft | 258 kts | 189° |
| 2026-04-30 14:00 | 36.98362 | 10.12563 | 6459 ft | 255 kts | 189° |
| 2026-04-30 14:01 | 36.96606 | 10.12309 | 6202 ft | 252 kts | 192° |
| 2026-04-30 14:01 | 36.94886 | 10.11942 | 5965 ft | 249 kts | 193° |
| 2026-04-30 14:01 | 36.93208 | 10.11569 | 5700 ft | 248 kts | 193° |
| 2026-04-30 14:01 | 36.91495 | 10.11184 | 5444 ft | 246 kts | 193° |
| 2026-04-30 14:02 | 36.89822 | 10.10806 | 5206 ft | 243 kts | 193° |
| 2026-04-30 14:02 | 36.88181 | 10.10435 | 4962 ft | 242 kts | 193° |
| 2026-04-30 14:02 | 36.86525 | 10.10053 | 4703 ft | 241 kts | 194° |
| 2026-04-30 14:02 | 36.84884 | 10.09681 | 4458 ft | 238 kts | 193° |
| 2026-04-30 14:03 | 36.83268 | 10.09306 | 4214 ft | 235 kts | 194° |
| 2026-04-30 14:03 | 36.81667 | 10.08925 | 3977 ft | 233 kts | 193° |
| 2026-04-30 14:03 | 36.80074 | 10.08544 | 3728 ft | 232 kts | 193° |
| 2026-04-30 14:03 | 36.78488 | 10.08162 | 3480 ft | 232 kts | 192° |
| 2026-04-30 14:04 | 36.76915 | 10.07773 | 3232 ft | 230 kts | 193° |
| 2026-04-30 14:04 | 36.75357 | 10.07389 | 3047 ft | 226 kts | 193° |
| 2026-04-30 14:04 | 36.73854 | 10.07005 | 2982 ft | 214 kts | 193° |
| 2026-04-30 14:04 | 36.72438 | 10.06662 | 2976 ft | 202 kts | 192° |
| 2026-04-30 14:05 | 36.71082 | 10.06330 | 2945 ft | 198 kts | 194° |
| 2026-04-30 14:05 | 36.69656 | 10.05974 | 3030 ft | 229 kts | 193° |
| 2026-04-30 14:05 | 36.67947 | 10.05535 | 3042 ft | 268 kts | 193° |
| 2026-04-30 14:05 | 36.66066 | 10.05095 | 2998 ft | 279 kts | 185° |
| 2026-04-30 14:06 | 36.64196 | 10.05591 | 2967 ft | 275 kts | 148° |
| 2026-04-30 14:06 | 36.62510 | 10.09360 | 2973 ft | 249 kts | 89° |
| 2026-04-30 14:07 | 36.63373 | 10.13199 | 2965 ft | 220 kts | 51° |
| 2026-04-30 14:07 | 36.64370 | 10.14560 | 2980 ft | 208 kts | 41° |
| 2026-04-30 14:07 | 36.65418 | 10.15768 | 2966 ft | 203 kts | 40° |
| 2026-04-30 14:08 | 36.67551 | 10.17980 | 2944 ft | 201 kts | 14° |
| 2026-04-30 14:08 | 36.68910 | 10.18308 | 2909 ft | 202 kts | 9° |
| 2026-04-30 14:08 | 36.71616 | 10.19026 | 2416 ft | 193 kts | 13° |
| 2026-04-30 14:09 | 36.72884 | 10.19409 | 2219 ft | 182 kts | 12° |
| 2026-04-30 14:09 | 36.74041 | 10.19721 | 2144 ft | 160 kts | 11° |
| 2026-04-30 14:09 | 36.75955 | 10.20234 | 1887 ft | 125 kts | 14° |
| 2026-04-30 14:10 | 36.76784 | 10.20464 | 1553 ft | 121 kts | 9° |
| 2026-04-30 14:10 | 36.77636 | 10.20664 | 1363 ft | 129 kts | 10° |
| 2026-04-30 14:10 | 36.78548 | 10.20922 | 1179 ft | 136 kts | 11° |
| 2026-04-30 14:10 | 36.79442 | 10.21198 | 976 ft | 128 kts | 13° |
| 2026-04-30 14:11 | 36.80325 | 10.21421 | 765 ft | 130 kts | 12° |
| 2026-04-30 14:11 | 36.81203 | 10.21663 | 585 ft | 129 kts | 13° |
| 2026-04-30 14:11 | 36.81799 | 10.21826 | 469 ft | 136 kts | 12° |
| 2026-04-30 14:11 | 36.83071 | 10.22158 | 242 ft | 143 kts | 13° |
| 2026-04-30 14:12 | 36.83994 | 10.22405 | 52 ft | 128 kts | 12° |
| 2026-04-30 14:12 | 36.84740 | 10.22606 | 25 ft | 82 kts | 13° |
| 2026-04-30 14:12 | 36.85069 | 10.22694 | 28 ft | 27 kts | 3° |
| 2026-04-30 14:12 | 36.85154 | 10.22595 | 29 ft | 26 kts | 296° |
| 2026-04-30 14:13 | 36.85134 | 10.22434 | 27 ft | 19 kts | 204° |
| 2026-04-30 14:13 | 36.85029 | 10.22397 | 26 ft | 12 kts | 196° |
| 2026-04-30 14:13 | 36.84949 | 10.22378 | 27 ft | 12 kts | 192° |
| 2026-04-30 14:13 | 36.84877 | 10.22327 | 26 ft | 14 kts | 255° |
| 2026-04-30 14:14 | 36.84887 | 10.22174 | 25 ft | 19 kts | 275° |
| 2026-04-30 14:14 | 36.84853 | 10.22029 | 26 ft | 19 kts | 208° |
| 2026-04-30 14:14 | 36.84734 | 10.21990 | 27 ft | 17 kts | 222° |
| 2026-04-30 14:14 | 36.84697 | 10.21901 | 26 ft | 7 kts | 197° |
| 2026-04-30 14:15 | 36.84669 | 10.21890 | 26 ft | 0 kts | 198° |
| 2026-04-30 14:20 | 36.84669 | 10.21891 | 26 ft | 0 kts | 198° |
| 2026-04-30 14:24 | 36.84670 | 10.21891 | 25 ft | 0 kts | 198° |
| 2026-04-30 14:39 | 36.84671 | 10.21891 | 25 ft | 0 kts | 198° |
| 2026-04-30 14:45 | 36.84671 | 10.21892 | 25 ft | 0 kts | 198° |
| 2026-04-30 14:55 | 36.84672 | 10.21892 | 25 ft | 0 kts | 198° |